createdAt,value
2018-05-13T00:01:04.397Z,35.70
2018-05-13T00:03:32.292Z,32.80
2018-05-13T00:06:00.174Z,38.50
2018-05-13T00:08:28.090Z,38.73
2018-05-13T00:10:55.981Z,35.57
2018-05-13T00:13:23.874Z,34.57
2018-05-13T00:15:51.765Z,43.73
2018-05-13T00:18:19.709Z,37.47
2018-05-13T00:20:47.602Z,37.93
2018-05-13T00:23:15.508Z,33.17
2018-05-13T00:25:43.410Z,36.30
2018-05-13T00:28:11.302Z,35.30
2018-05-13T00:30:39.218Z,36.80
2018-05-13T00:33:07.110Z,37.00
2018-05-13T00:35:35.001Z,35.13
2018-05-13T00:38:03.101Z,32.83
2018-05-13T00:40:31.013Z,36.20
2018-05-13T00:42:58.941Z,37.20
2018-05-13T00:45:26.837Z,34.83
2018-05-13T00:47:54.725Z,40.53
2018-05-13T00:50:22.605Z,34.00
2018-05-13T00:52:50.502Z,35.60
2018-05-13T00:55:18.402Z,33.80
2018-05-13T00:57:46.285Z,34.97
2018-05-13T01:00:14.190Z,36.00
2018-05-13T01:02:42.163Z,31.67
2018-05-13T01:05:10.052Z,35.10
2018-05-13T01:07:37.965Z,35.70
2018-05-13T01:10:05.889Z,36.53
2018-05-13T01:12:33.789Z,38.10
2018-05-13T01:15:01.674Z,39.97
2018-05-13T01:17:29.549Z,42.00
2018-05-13T01:19:57.449Z,39.93
2018-05-13T01:22:25.365Z,37.60
2018-05-13T01:24:53.330Z,39.50
2018-05-13T01:27:21.234Z,41.10
2018-05-13T01:29:49.172Z,38.33
2018-05-13T01:32:17.083Z,39.23
2018-05-13T01:34:44.972Z,39.47
2018-05-13T01:37:12.849Z,43.57
2018-05-13T01:39:40.913Z,35.97
2018-05-13T01:42:08.854Z,39.87
2018-05-13T01:44:36.741Z,42.27
2018-05-13T01:47:04.642Z,34.30
2018-05-13T01:49:32.537Z,35.03
2018-05-13T01:52:00.499Z,42.97
2018-05-13T01:54:28.390Z,33.13
2018-05-13T01:56:56.297Z,38.07
2018-05-13T01:59:24.201Z,36.93
2018-05-13T02:01:52.130Z,34.57
2018-05-13T02:04:20.029Z,40.60
2018-05-13T02:06:47.909Z,35.60
2018-05-13T02:09:15.826Z,35.93
2018-05-13T02:11:43.709Z,36.80
2018-05-13T02:14:11.589Z,31.73
2018-05-13T02:16:39.508Z,34.50
2018-05-13T02:19:07.402Z,37.23
2018-05-13T02:21:35.293Z,42.73
2018-05-13T02:24:03.219Z,32.40
2018-05-13T02:26:31.118Z,35.80
2018-05-13T02:28:59.022Z,32.03
2018-05-13T02:31:26.967Z,36.37
2018-05-13T02:33:54.890Z,35.50
2018-05-13T02:36:22.796Z,33.20
2018-05-13T02:38:50.689Z,36.37
2018-05-13T02:41:18.844Z,37.10
2018-05-13T02:43:46.777Z,31.77
2018-05-13T02:46:14.669Z,33.73
2018-05-13T02:48:42.570Z,31.50
2018-05-13T02:51:10.466Z,34.83
2018-05-13T02:53:38.369Z,33.03
2018-05-13T02:56:06.281Z,34.10
2018-05-13T02:58:34.218Z,38.40
2018-05-13T03:01:02.102Z,33.80
2018-05-13T03:03:30.010Z,33.13
2018-05-13T03:05:57.955Z,34.53
2018-05-13T03:08:25.871Z,37.60
2018-05-13T03:10:53.770Z,37.83
2018-05-13T03:13:21.674Z,33.47
2018-05-13T03:15:49.610Z,36.43
2018-05-13T03:18:17.502Z,37.33
2018-05-13T03:20:45.433Z,29.37
2018-05-13T03:23:13.336Z,30.90
2018-05-13T03:25:41.219Z,35.00
2018-05-13T03:28:09.181Z,35.07
2018-05-13T03:30:37.067Z,31.97
2018-05-13T03:33:04.954Z,38.27
2018-05-13T03:38:08.946Z,33.87
2018-05-13T03:40:36.853Z,32.63
2018-05-13T03:43:04.921Z,31.30
2018-05-13T03:45:32.824Z,36.23
2018-05-13T03:48:00.710Z,34.20
2018-05-13T03:50:28.630Z,32.80
2018-05-13T03:52:56.534Z,37.37
2018-05-13T03:55:24.410Z,32.03
2018-05-13T03:57:52.301Z,35.10
2018-05-13T04:00:20.197Z,35.10
2018-05-13T04:02:48.114Z,33.40
2018-05-13T04:05:16.041Z,34.87
2018-05-13T04:07:43.931Z,28.83
2018-05-13T04:10:17.899Z,32.37
2018-05-13T04:13:06.669Z,37.13
2018-05-13T04:15:34.546Z,32.10
2018-05-13T04:18:02.462Z,38.80
2018-05-13T04:20:30.390Z,32.20
2018-05-13T04:22:58.282Z,34.40
2018-05-13T04:25:26.206Z,36.07
2018-05-13T04:27:54.097Z,32.43
2018-05-13T04:30:22.013Z,31.27
2018-05-13T04:32:49.933Z,30.50
2018-05-13T04:35:17.826Z,36.00
2018-05-13T04:37:45.719Z,34.97
2018-05-13T04:40:13.623Z,35.03
2018-05-13T04:42:41.541Z,35.03
2018-05-13T04:45:09.738Z,36.07
2018-05-13T04:47:37.653Z,32.20
2018-05-13T04:50:05.549Z,34.20
2018-05-13T04:52:33.441Z,33.20
2018-05-13T04:55:01.341Z,31.43
2018-05-13T04:57:29.231Z,36.77
2018-05-13T04:59:57.121Z,34.33
2018-05-13T05:02:25.039Z,37.47
2018-05-13T05:04:52.942Z,31.70
2018-05-13T05:07:20.847Z,34.13
2018-05-13T05:09:48.750Z,41.30
2018-05-13T05:12:16.633Z,41.30
2018-05-13T05:14:44.562Z,38.93
2018-05-13T05:17:12.494Z,32.60
2018-05-13T05:19:40.377Z,38.87
2018-05-13T05:22:08.292Z,40.93
2018-05-13T05:24:36.185Z,37.50
2018-05-13T05:27:04.075Z,34.60
2018-05-13T05:29:31.986Z,29.73
2018-05-13T05:31:59.930Z,34.13
2018-05-13T05:34:27.818Z,28.97
2018-05-13T05:36:55.764Z,30.20
2018-05-13T05:39:23.665Z,31.23
2018-05-13T05:41:51.562Z,35.37
2018-05-13T05:44:19.453Z,31.17
2018-05-13T05:46:47.601Z,31.83
2018-05-13T05:49:15.493Z,35.80
2018-05-13T05:51:43.390Z,28.80
2018-05-13T05:54:11.268Z,28.30
2018-05-13T05:56:39.166Z,32.27
2018-05-13T05:59:07.062Z,32.47
2018-05-13T06:01:34.972Z,32.20
2018-05-13T06:04:02.853Z,29.43
2018-05-13T06:06:30.766Z,30.50
2018-05-13T06:08:58.662Z,27.83
2018-05-13T06:11:26.555Z,34.80
2018-05-13T06:13:54.442Z,38.13
2018-05-13T06:16:22.361Z,32.23
2018-05-13T06:18:50.316Z,27.90
2018-05-13T06:21:18.205Z,31.53
2018-05-13T06:23:46.110Z,27.73
2018-05-13T06:26:13.997Z,30.87
2018-05-13T06:28:41.881Z,29.77
2018-05-13T06:31:09.782Z,32.73
2018-05-13T06:33:37.661Z,34.47
2018-05-13T06:36:05.574Z,35.13
2018-05-13T06:38:33.466Z,35.60
2018-05-13T06:41:01.402Z,33.53
2018-05-13T06:43:29.321Z,29.90
2018-05-13T06:45:57.230Z,33.30
2018-05-13T06:48:25.363Z,31.33
2018-05-13T06:50:53.309Z,25.83
2018-05-13T06:53:21.157Z,34.10
2018-05-13T06:55:49.064Z,28.13
2018-05-13T06:58:16.962Z,27.40
2018-05-13T07:00:44.873Z,29.40
2018-05-13T07:03:12.792Z,30.10
2018-05-13T07:05:40.669Z,30.00
2018-05-13T07:08:08.560Z,32.30
2018-05-13T07:10:36.477Z,29.97
2018-05-13T07:13:04.382Z,34.37
2018-05-13T07:15:32.282Z,29.90
2018-05-13T07:18:00.238Z,25.33
2018-05-13T07:20:28.122Z,27.40
2018-05-13T07:22:56.009Z,24.37
2018-05-13T07:25:23.917Z,30.87
2018-05-13T07:27:51.817Z,30.80
2018-05-13T07:30:19.705Z,27.90
2018-05-13T07:32:47.602Z,28.20
2018-05-13T07:35:15.493Z,29.47
2018-05-13T07:37:43.396Z,32.47
2018-05-13T07:40:11.281Z,24.77
2018-05-13T07:42:39.181Z,29.00
2018-05-13T07:45:07.105Z,30.00
2018-05-13T07:47:35.031Z,27.43
2018-05-13T07:50:03.146Z,35.03
2018-05-13T07:52:31.047Z,45.23
2018-05-13T07:54:58.957Z,29.73
2018-05-13T07:57:26.841Z,28.00
2018-05-13T07:59:54.742Z,23.80
2018-05-13T08:02:22.650Z,26.23
2018-05-13T08:04:50.553Z,26.03
2018-05-13T08:07:18.471Z,23.90
2018-05-13T08:09:46.410Z,28.57
2018-05-13T08:12:14.305Z,25.23
2018-05-13T08:14:42.194Z,25.43
2018-05-13T08:17:10.081Z,27.40
2018-05-13T08:19:37.962Z,23.00
2018-05-13T08:22:05.850Z,26.63
2018-05-13T08:24:33.782Z,23.70
2018-05-13T08:27:01.672Z,27.60
2018-05-13T08:29:29.593Z,24.00
2018-05-13T08:31:57.518Z,22.17
2018-05-13T08:34:25.431Z,23.47
2018-05-13T08:36:53.330Z,23.97
2018-05-13T08:39:21.221Z,20.77
2018-05-13T08:41:49.124Z,21.93
2018-05-13T08:44:17.063Z,20.33
2018-05-13T08:46:44.977Z,24.00
2018-05-13T08:49:12.909Z,18.70
2018-05-13T08:51:41.070Z,22.80
2018-05-13T08:54:08.970Z,18.13
2018-05-13T08:56:36.858Z,23.13
2018-05-13T08:59:04.741Z,20.60
2018-05-13T09:01:32.661Z,17.30
2018-05-13T09:04:00.553Z,19.80
2018-05-13T09:06:28.450Z,17.80
2018-05-13T09:08:56.330Z,18.13
2018-05-13T09:11:24.398Z,22.23
2018-05-13T09:13:52.312Z,18.30
2018-05-13T09:16:20.221Z,16.73
2018-05-13T09:18:48.130Z,19.30
2018-05-13T09:21:16.028Z,18.30
2018-05-13T09:23:43.926Z,17.80
2018-05-13T09:26:11.806Z,15.87
2018-05-13T09:28:39.754Z,20.63
2018-05-13T09:31:07.634Z,19.13
2018-05-13T09:33:35.529Z,14.70
2018-05-13T09:36:03.442Z,12.17
2018-05-13T09:38:31.334Z,15.83
2018-05-13T09:40:59.233Z,19.27
2018-05-13T09:43:27.134Z,15.30
2018-05-13T09:45:55.111Z,14.13
2018-05-13T09:48:22.954Z,15.90
2018-05-13T09:50:50.838Z,15.33
2018-05-13T09:53:19.026Z,15.63
2018-05-13T09:55:46.926Z,15.03
2018-05-13T09:58:14.817Z,16.17
2018-05-13T10:00:42.713Z,16.47
2018-05-13T10:03:10.622Z,14.30
2018-05-13T10:05:38.530Z,16.10
2018-05-13T10:08:06.458Z,18.57
2018-05-13T10:10:34.354Z,24.90
2018-05-13T10:13:02.253Z,15.33
2018-05-13T10:15:30.161Z,15.80
2018-05-13T10:17:58.074Z,17.30
2018-05-13T10:20:25.994Z,16.63
2018-05-13T10:22:53.881Z,22.33
2018-05-13T10:25:21.777Z,17.30
2018-05-13T10:27:49.718Z,14.50
2018-05-13T10:30:17.629Z,17.97
2018-05-13T10:32:45.544Z,18.20
2018-05-13T10:35:13.427Z,18.90
2018-05-13T10:37:41.334Z,18.30
2018-05-13T10:40:09.225Z,20.97
2018-05-13T10:42:37.122Z,18.80
2018-05-13T10:45:05.027Z,18.27
2018-05-13T10:47:32.942Z,21.60
2018-05-13T10:50:00.837Z,17.40
2018-05-13T10:52:28.740Z,17.90
2018-05-13T10:54:56.966Z,19.40
2018-05-13T10:57:24.866Z,19.80
2018-05-13T10:59:52.785Z,19.50
2018-05-13T11:02:20.670Z,19.80
2018-05-13T11:04:48.606Z,16.23
2018-05-13T11:07:16.516Z,16.47
2018-05-13T11:09:44.445Z,21.70
2018-05-13T11:12:12.347Z,18.80
2018-05-13T11:14:40.242Z,19.80
2018-05-13T11:17:08.137Z,23.13
2018-05-13T11:19:36.024Z,21.83
2018-05-13T11:22:03.965Z,23.00
2018-05-13T11:24:31.855Z,19.30
2018-05-13T11:26:59.765Z,19.27
2018-05-13T11:29:27.678Z,15.87
2018-05-13T11:31:55.580Z,21.23
2018-05-13T11:34:23.521Z,18.80
2018-05-13T11:36:51.422Z,31.73
2018-05-13T11:39:19.314Z,21.37
2018-05-13T11:41:47.230Z,20.07
2018-05-13T11:44:15.133Z,18.97
2018-05-13T11:46:43.048Z,25.47
2018-05-13T11:49:10.958Z,23.30
2018-05-13T11:51:38.813Z,24.43
2018-05-13T11:54:06.727Z,23.10
2018-05-13T11:56:34.857Z,25.50
2018-05-13T11:59:02.724Z,22.90
2018-05-13T12:01:30.689Z,24.33
2018-05-13T12:03:58.614Z,19.23
2018-05-13T12:06:26.502Z,22.57
2018-05-13T12:08:54.430Z,21.10
2018-05-13T12:11:22.312Z,22.40
2018-05-13T12:13:50.238Z,31.93
2018-05-13T12:16:18.132Z,29.53
2018-05-13T12:18:46.022Z,26.23
2018-05-13T12:21:13.926Z,26.27
2018-05-13T12:23:41.899Z,22.40
2018-05-13T12:26:09.862Z,24.70
2018-05-13T12:28:37.754Z,21.20
2018-05-13T12:31:05.642Z,24.37
2018-05-13T12:33:33.549Z,20.03
2018-05-13T12:36:01.450Z,25.23
2018-05-13T12:38:29.346Z,24.67
2018-05-13T12:40:57.274Z,18.27
2018-05-13T12:43:25.263Z,20.67
2018-05-13T12:45:53.134Z,21.27
2018-05-13T12:48:21.036Z,19.73
2018-05-13T12:50:48.925Z,19.80
2018-05-13T12:53:16.822Z,16.50
2018-05-13T12:55:44.726Z,20.10
2018-05-13T12:58:12.938Z,22.40
2018-05-13T13:00:40.871Z,18.20
2018-05-13T13:03:08.781Z,21.03
2018-05-13T13:05:36.706Z,20.40
2018-05-13T13:08:04.595Z,17.97
2018-05-13T13:10:32.485Z,18.47
2018-05-13T13:13:00.390Z,17.30
2018-05-13T13:15:28.314Z,21.20
2018-05-13T13:17:56.258Z,19.37
2018-05-13T13:20:24.161Z,22.40
2018-05-13T13:22:52.070Z,25.23
2018-05-13T13:25:19.983Z,16.90
2018-05-13T13:27:47.878Z,17.03
2018-05-13T13:30:15.898Z,19.50
2018-05-13T13:32:43.769Z,17.07
2018-05-13T13:35:11.656Z,14.70
2018-05-13T13:37:39.591Z,20.30
2018-05-13T13:40:07.522Z,22.70
2018-05-13T13:42:35.416Z,17.30
2018-05-13T13:45:03.318Z,16.27
2018-05-13T13:47:31.241Z,13.53
2018-05-13T13:49:59.158Z,12.63
2018-05-13T13:52:27.053Z,13.70
2018-05-13T13:54:54.973Z,17.10
2018-05-13T13:57:22.863Z,13.23
2018-05-13T13:59:51.049Z,16.07
2018-05-13T14:02:19.074Z,11.93
2018-05-13T14:04:47.006Z,13.13
2018-05-13T14:07:14.897Z,14.13
2018-05-13T14:09:42.813Z,19.53
2018-05-13T14:12:10.710Z,15.47
2018-05-13T14:14:38.641Z,12.27
2018-05-13T14:17:06.574Z,12.60
2018-05-13T14:19:34.492Z,12.07
2018-05-13T14:22:02.390Z,21.03
2018-05-13T14:24:30.362Z,14.70
2018-05-13T14:26:58.277Z,12.20
2018-05-13T14:29:26.151Z,11.73
2018-05-13T14:31:54.062Z,12.97
2018-05-13T14:34:21.960Z,11.50
2018-05-13T14:36:49.854Z,16.10
2018-05-13T14:39:17.757Z,12.13
2018-05-13T14:41:45.646Z,19.10
2018-05-13T14:44:13.558Z,11.63
2018-05-13T14:46:41.465Z,9.50
2018-05-13T14:49:09.429Z,11.67
2018-05-13T14:51:37.356Z,17.10
2018-05-13T14:54:05.240Z,11.17
2018-05-13T14:56:33.145Z,11.13
2018-05-13T14:59:01.042Z,19.50
2018-05-13T15:01:29.086Z,11.33
2018-05-13T15:03:56.997Z,9.07
2018-05-13T15:06:24.882Z,9.50
2018-05-13T15:08:52.761Z,15.27
2018-05-13T15:11:20.679Z,14.23
2018-05-13T15:13:48.566Z,11.27
2018-05-13T15:16:16.461Z,8.00
2018-05-13T15:18:44.365Z,9.60
2018-05-13T15:21:12.253Z,7.43
2018-05-13T15:23:40.171Z,9.10
2018-05-13T15:26:08.223Z,10.00
2018-05-13T15:28:36.118Z,11.03
2018-05-13T15:31:04.026Z,8.93
2018-05-13T15:33:31.929Z,8.73
2018-05-13T15:35:59.841Z,13.77
2018-05-13T15:38:27.712Z,7.33
2018-05-13T15:40:55.878Z,12.90
2018-05-13T15:43:24.029Z,9.60
2018-05-13T15:45:51.890Z,8.43
2018-05-13T15:48:19.830Z,11.40
2018-05-13T15:50:48.686Z,7.60
2018-05-13T15:53:16.630Z,12.43
2018-05-13T15:55:44.532Z,8.80
2018-05-13T15:58:12.467Z,10.57
2018-05-13T16:00:40.391Z,8.70
2018-05-13T16:03:08.493Z,6.80
2018-05-13T16:05:36.401Z,10.93
2018-05-13T16:08:04.343Z,7.50
2018-05-13T16:10:32.221Z,14.33
2018-05-13T16:13:00.258Z,12.30
2018-05-13T16:15:28.188Z,8.27
2018-05-13T16:17:56.435Z,10.20
2018-05-13T16:20:24.366Z,20.33
2018-05-13T16:22:52.301Z,13.67
2018-05-13T16:25:20.189Z,15.73
2018-05-13T16:27:48.078Z,8.77
2018-05-13T16:30:16.048Z,9.50
2018-05-13T16:32:43.856Z,14.53
2018-05-13T16:35:11.751Z,6.00
2018-05-13T16:37:39.658Z,8.83
2018-05-13T16:40:07.546Z,6.07
2018-05-13T16:42:35.454Z,8.33
2018-05-13T16:45:03.359Z,15.40
2018-05-13T16:47:31.241Z,7.83
2018-05-13T16:49:59.137Z,9.03
2018-05-13T16:52:27.033Z,6.63
2018-05-13T16:54:54.917Z,9.63
2018-05-13T16:57:22.813Z,6.30
2018-05-13T16:59:50.765Z,7.97
2018-05-13T17:02:18.695Z,15.53
2018-05-13T17:04:46.837Z,10.17
2018-05-13T17:07:14.733Z,5.13
2018-05-13T17:09:42.613Z,7.73
2018-05-13T17:12:10.518Z,7.50
2018-05-13T17:14:38.410Z,4.33
2018-05-13T17:17:06.296Z,8.63
2018-05-13T17:19:34.198Z,6.60
2018-05-13T17:22:02.119Z,8.53
2018-05-13T17:24:30.019Z,7.67
2018-05-13T17:26:57.905Z,10.20
2018-05-13T17:29:25.805Z,8.33
2018-05-13T17:31:53.709Z,11.33
2018-05-13T17:34:21.613Z,6.93
2018-05-13T17:36:49.517Z,5.90
2018-05-13T17:39:17.440Z,11.47
2018-05-13T17:41:45.371Z,4.30
2018-05-13T17:44:13.270Z,6.20
2018-05-13T17:46:41.187Z,10.03
2018-05-13T17:49:09.082Z,8.93
2018-05-13T17:51:37.042Z,5.23
2018-05-13T17:54:04.941Z,8.33
2018-05-13T17:56:32.862Z,11.33
2018-05-13T17:59:00.830Z,10.93
2018-05-13T18:01:28.749Z,8.87
2018-05-13T18:03:56.647Z,11.57
2018-05-13T18:06:24.823Z,6.20
2018-05-13T18:08:52.737Z,7.17
2018-05-13T18:11:20.638Z,6.97
2018-05-13T18:13:48.588Z,6.80
2018-05-13T18:16:16.506Z,14.30
2018-05-13T18:18:44.406Z,6.33
2018-05-13T18:21:12.356Z,5.50
2018-05-13T18:23:40.270Z,4.73
2018-05-13T18:26:08.205Z,5.97
2018-05-13T18:28:36.117Z,5.77
2018-05-13T18:31:04.101Z,7.23
2018-05-13T18:33:32.026Z,16.30
2018-05-13T18:35:59.978Z,13.03
2018-05-13T18:38:27.878Z,7.60
2018-05-13T18:40:55.865Z,5.97
2018-05-13T18:43:23.778Z,8.60
2018-05-13T18:45:51.730Z,10.30
2018-05-13T18:48:19.670Z,12.73
2018-05-13T18:50:47.593Z,9.03
2018-05-13T18:53:15.514Z,5.33
2018-05-13T18:55:43.441Z,7.23
2018-05-13T18:58:11.341Z,7.33
2018-05-13T19:00:39.238Z,10.23
2018-05-13T19:03:07.145Z,9.13
2018-05-13T19:05:35.070Z,11.03
2018-05-13T19:08:03.170Z,7.70
2018-05-13T19:10:31.059Z,7.67
2018-05-13T19:12:58.970Z,5.13
2018-05-13T19:15:26.887Z,4.60
2018-05-13T19:17:54.790Z,9.53
2018-05-13T19:20:22.716Z,7.77
2018-05-13T19:22:50.606Z,8.27
2018-05-13T19:25:18.502Z,10.47
2018-05-13T19:27:46.417Z,10.53
2018-05-13T19:30:14.370Z,6.50
2018-05-13T19:32:44.177Z,5.13
2018-05-13T19:35:14.749Z,10.03
2018-05-13T19:37:43.508Z,6.30
2018-05-13T19:40:11.411Z,11.10
2018-05-13T19:42:39.298Z,10.10
2018-05-13T19:45:07.200Z,6.97
2018-05-13T19:47:35.112Z,6.43
2018-05-13T19:50:03.018Z,8.33
2018-05-13T19:52:30.909Z,11.53
2018-05-13T19:54:58.794Z,5.53
2018-05-13T19:57:26.701Z,6.63
2018-05-13T19:59:54.621Z,8.30
2018-05-13T20:02:22.509Z,12.00
2018-05-13T20:04:50.410Z,8.60
2018-05-13T20:07:18.305Z,11.43
2018-05-13T20:09:46.500Z,8.30
2018-05-13T20:12:14.333Z,5.93
2018-05-13T20:14:42.257Z,10.17
2018-05-13T20:17:10.165Z,10.30
2018-05-13T20:19:38.049Z,5.93
2018-05-13T20:22:05.966Z,8.70
2018-05-13T20:24:33.863Z,5.37
2018-05-13T20:27:01.766Z,7.87
2018-05-13T20:29:29.679Z,9.50
2018-05-13T20:31:57.569Z,5.30
2018-05-13T20:34:25.474Z,10.53
2018-05-13T20:36:53.394Z,10.60
2018-05-13T20:39:21.285Z,13.13
2018-05-13T20:41:49.188Z,8.80
2018-05-13T20:44:17.094Z,10.67
2018-05-13T20:46:45.001Z,7.13
2018-05-13T20:49:12.897Z,10.30
2018-05-13T20:51:40.787Z,6.13
2018-05-13T20:54:08.678Z,6.63
2018-05-13T20:56:36.573Z,11.67
2018-05-13T20:59:04.461Z,13.37
2018-05-13T21:01:32.337Z,6.67
2018-05-13T21:04:00.230Z,7.70
2018-05-13T21:06:28.294Z,6.80
2018-05-13T21:08:56.216Z,5.33
2018-05-13T21:11:24.333Z,5.20
2018-05-13T21:13:52.229Z,5.80
2018-05-13T21:16:20.134Z,6.07
2018-05-13T21:18:48.031Z,4.43
2018-05-13T21:21:15.931Z,8.83
2018-05-13T21:23:43.831Z,12.83
2018-05-13T21:26:11.721Z,10.60
2018-05-13T21:28:39.613Z,5.57
2018-05-13T21:31:07.513Z,10.73
2018-05-13T21:33:35.447Z,7.73
2018-05-13T21:36:03.362Z,5.57
2018-05-13T21:38:31.318Z,9.83
2018-05-13T21:40:59.205Z,8.07
2018-05-13T21:43:27.092Z,11.10
2018-05-13T21:45:54.997Z,8.43
2018-05-13T21:48:22.908Z,7.00
2018-05-13T21:50:50.802Z,5.43
2018-05-13T21:53:18.719Z,6.00
2018-05-13T21:55:46.622Z,4.70
2018-05-13T21:58:14.541Z,6.63
2018-05-13T22:00:42.443Z,6.03
2018-05-13T22:03:10.334Z,6.60
2018-05-13T22:05:38.241Z,9.93
2018-05-13T22:08:06.130Z,10.87
2018-05-13T22:10:34.029Z,5.03
2018-05-13T22:13:02.150Z,9.23
2018-05-13T22:15:30.051Z,7.50
2018-05-13T22:17:57.951Z,16.40
2018-05-13T22:20:25.854Z,5.30
2018-05-13T22:22:53.752Z,6.60
2018-05-13T22:25:21.642Z,8.07
2018-05-13T22:27:49.541Z,9.07
2018-05-13T22:30:17.429Z,14.10
2018-05-13T22:32:45.329Z,9.17
2018-05-13T22:35:13.224Z,10.40
2018-05-13T22:37:41.122Z,5.70
2018-05-13T22:40:09.021Z,17.93
2018-05-13T22:42:36.910Z,10.23
2018-05-13T22:45:04.884Z,8.47
2018-05-13T22:47:32.693Z,7.50
2018-05-13T22:50:00.603Z,9.53
2018-05-13T22:52:28.541Z,9.37
2018-05-13T22:54:56.385Z,6.80
2018-05-13T22:57:24.285Z,6.40
2018-05-13T22:59:52.193Z,7.37
2018-05-13T23:02:20.104Z,7.30
2018-05-13T23:04:48.017Z,10.00
2018-05-13T23:07:15.929Z,6.77
2018-05-13T23:09:43.817Z,12.03
2018-05-13T23:12:11.723Z,6.40
2018-05-13T23:14:39.990Z,5.60
2018-05-13T23:17:07.870Z,6.90
2018-05-13T23:19:35.789Z,7.57
2018-05-13T23:22:03.701Z,8.93
2018-05-13T23:24:31.590Z,7.30
2018-05-13T23:26:59.490Z,9.33
2018-05-13T23:29:27.405Z,8.13
2018-05-13T23:31:55.299Z,6.03
2018-05-13T23:34:23.225Z,9.90
2018-05-13T23:36:51.114Z,18.50
2018-05-13T23:39:19.001Z,6.00
2018-05-13T23:41:46.921Z,6.40
2018-05-13T23:44:14.811Z,7.43
2018-05-13T23:46:42.719Z,8.03
2018-05-13T23:49:10.613Z,9.53
2018-05-13T23:51:38.555Z,8.40
2018-05-13T23:54:06.453Z,9.57
2018-05-13T23:56:34.345Z,6.73
2018-05-13T23:59:02.237Z,6.73
